sensor_id;sensor_type;location;lat;lon;timestamp;temperature;humidity
19972;DHT22;10147;16.402;102.848;2023-02-28T00:01:51;19.50;99.90
19972;DHT22;10147;16.402;102.848;2023-02-28T00:04:21;19.60;99.90
19972;DHT22;10147;16.402;102.848;2023-02-28T00:06:52;19.60;99.90
19972;DHT22;10147;16.402;102.848;2023-02-28T00:09:23;19.50;99.90
19972;DHT22;10147;16.402;102.848;2023-02-28T00:11:53;19.60;99.90
19972;DHT22;10147;16.402;102.848;2023-02-28T00:14:23;19.70;99.90
19972;DHT22;10147;16.402;102.848;2023-02-28T00:16:54;19.90;99.90
19972;DHT22;10147;16.402;102.848;2023-02-28T00:19:25;19.90;99.90
19972;DHT22;10147;16.402;102.848;2023-02-28T00:21:55;20.00;99.90
19972;DHT22;10147;16.402;102.848;2023-02-28T00:24:25;20.00;99.90
19972;DHT22;10147;16.402;102.848;2023-02-28T00:26:56;20.10;99.90
19972;DHT22;10147;16.402;102.848;2023-02-28T00:29:26;20.10;99.90
19972;DHT22;10147;16.402;102.848;2023-02-28T00:31:57;20.10;99.90
19972;DHT22;10147;16.402;102.848;2023-02-28T00:34:28;20.00;99.90
19972;DHT22;10147;16.402;102.848;2023-02-28T00:36:58;20.10;99.90
19972;DHT22;10147;16.402;102.848;2023-02-28T00:39:29;20.30;99.90
19972;DHT22;10147;16.402;102.848;2023-02-28T00:41:59;20.40;99.90
19972;DHT22;10147;16.402;102.848;2023-02-28T00:44:31;20.30;99.90
19972;DHT22;10147;16.402;102.848;2023-02-28T00:47:01;20.50;99.90
19972;DHT22;10147;16.402;102.848;2023-02-28T00:49:31;20.50;99.90
19972;DHT22;10147;16.402;102.848;2023-02-28T00:52:02;20.40;99.90
19972;DHT22;10147;16.402;102.848;2023-02-28T00:54:32;20.50;99.90
19972;DHT22;10147;16.402;102.848;2023-02-28T00:57:03;20.50;99.90
19972;DHT22;10147;16.402;102.848;2023-02-28T00:59:33;20.60;99.90
19972;DHT22;10147;16.402;102.848;2023-02-28T01:02:04;20.70;99.90
19972;DHT22;10147;16.402;102.848;2023-02-28T01:04:36;20.80;99.90
19972;DHT22;10147;16.402;102.848;2023-02-28T01:07:08;20.90;99.90
19972;DHT22;10147;16.402;102.848;2023-02-28T01:09:39;20.90;99.90
19972;DHT22;10147;16.402;102.848;2023-02-28T01:12:10;21.10;99.90
19972;DHT22;10147;16.402;102.848;2023-02-28T01:14:41;21.20;99.90
19972;DHT22;10147;16.402;102.848;2023-02-28T01:17:11;21.30;99.90
19972;DHT22;10147;16.402;102.848;2023-02-28T01:19:42;21.50;99.90
19972;DHT22;10147;16.402;102.848;2023-02-28T01:22:13;21.60;99.90
19972;DHT22;10147;16.402;102.848;2023-02-28T01:24:43;21.60;99.90
19972;DHT22;10147;16.402;102.848;2023-02-28T01:27:15;21.70;99.90
19972;DHT22;10147;16.402;102.848;2023-02-28T01:29:45;22.00;99.90
19972;DHT22;10147;16.402;102.848;2023-02-28T01:32:16;22.20;99.90
19972;DHT22;10147;16.402;102.848;2023-02-28T01:34:46;22.10;99.90
19972;DHT22;10147;16.402;102.848;2023-02-28T01:37:16;22.00;99.90
19972;DHT22;10147;16.402;102.848;2023-02-28T01:39:46;22.10;99.90
19972;DHT22;10147;16.402;102.848;2023-02-28T01:42:20;22.00;99.90
19972;DHT22;10147;16.402;102.848;2023-02-28T01:45:25;22.00;99.90
19972;DHT22;10147;16.402;102.848;2023-02-28T01:47:59;22.60;99.90
19972;DHT22;10147;16.402;102.848;2023-02-28T01:50:35;22.80;99.90
19972;DHT22;10147;16.402;102.848;2023-02-28T01:53:10;22.80;99.90
19972;DHT22;10147;16.402;102.848;2023-02-28T01:55:45;23.20;99.90
19972;DHT22;10147;16.402;102.848;2023-02-28T01:58:16;23.20;99.90
19972;DHT22;10147;16.402;102.848;2023-02-28T02:00:47;23.10;99.90
19972;DHT22;10147;16.402;102.848;2023-02-28T02:03:20;23.20;99.90
19972;DHT22;10147;16.402;102.848;2023-02-28T02:05:50;23.50;99.90
19972;DHT22;10147;16.402;102.848;2023-02-28T02:08:24;23.50;99.90
19972;DHT22;10147;16.402;102.848;2023-02-28T02:11:01;23.40;99.90
19972;DHT22;10147;16.402;102.848;2023-02-28T02:17:21;23.90;99.90
19972;DHT22;10147;16.402;102.848;2023-02-28T02:20:16;23.90;99.90
19972;DHT22;10147;16.402;102.848;2023-02-28T02:26:38;24.10;99.90
19972;DHT22;10147;16.402;102.848;2023-02-28T02:35:52;24.50;99.90
19972;DHT22;10147;16.402;102.848;2023-02-28T02:38:52;24.50;99.90
19972;DHT22;10147;16.402;102.848;2023-02-28T02:41:46;24.40;99.90
19972;DHT22;10147;16.402;102.848;2023-02-28T02:47:24;25.30;99.90
19972;DHT22;10147;16.402;102.848;2023-02-28T02:49:59;25.30;99.90
19972;DHT22;10147;16.402;102.848;2023-02-28T02:52:40;25.50;99.90
19972;DHT22;10147;16.402;102.848;2023-02-28T02:55:15;25.60;99.90
19972;DHT22;10147;16.402;102.848;2023-02-28T03:00:44;26.00;99.90
19972;DHT22;10147;16.402;102.848;2023-02-28T03:03:19;25.30;99.90
19972;DHT22;10147;16.402;102.848;2023-02-28T03:06:00;25.60;99.90
19972;DHT22;10147;16.402;102.848;2023-02-28T03:08:36;25.80;99.90
19972;DHT22;10147;16.402;102.848;2023-02-28T03:11:14;26.10;99.90
19972;DHT22;10147;16.402;102.848;2023-02-28T03:20:46;26.40;99.90
19972;DHT22;10147;16.402;102.848;2023-02-28T03:23:19;26.20;99.90
19972;DHT22;10147;16.402;102.848;2023-02-28T03:26:04;26.40;99.90
19972;DHT22;10147;16.402;102.848;2023-02-28T03:31:50;26.90;99.90
19972;DHT22;10147;16.402;102.848;2023-02-28T03:34:31;26.90;99.90
19972;DHT22;10147;16.402;102.848;2023-02-28T03:37:08;26.90;99.90
19972;DHT22;10147;16.402;102.848;2023-02-28T03:40:00;26.80;99.90
19972;DHT22;10147;16.402;102.848;2023-02-28T03:42:33;26.70;99.90
19972;DHT22;10147;16.402;102.848;2023-02-28T03:45:24;26.90;99.90
19972;DHT22;10147;16.402;102.848;2023-02-28T03:48:34;27.40;99.90
19972;DHT22;10147;16.402;102.848;2023-02-28T03:51:06;27.10;99.90
19972;DHT22;10147;16.402;102.848;2023-02-28T03:53:42;27.40;99.90
19972;DHT22;10147;16.402;102.848;2023-02-28T03:59:30;27.80;99.90
19972;DHT22;10147;16.402;102.848;2023-02-28T04:02:03;27.70;99.90
19972;DHT22;10147;16.402;102.848;2023-02-28T04:04:34;27.80;99.90
19972;DHT22;10147;16.402;102.848;2023-02-28T04:07:09;27.90;99.90
19972;DHT22;10147;16.402;102.848;2023-02-28T04:09:41;27.60;99.90
19972;DHT22;10147;16.402;102.848;2023-02-28T04:12:11;28.00;99.90
19972;DHT22;10147;16.402;102.848;2023-02-28T04:14:41;28.20;99.90
19972;DHT22;10147;16.402;102.848;2023-02-28T04:17:11;28.30;99.90
19972;DHT22;10147;16.402;102.848;2023-02-28T04:19:42;28.80;99.90
19972;DHT22;10147;16.402;102.848;2023-02-28T04:22:13;28.50;99.90
19972;DHT22;10147;16.402;102.848;2023-02-28T04:24:44;28.50;99.90
19972;DHT22;10147;16.402;102.848;2023-02-28T04:27:14;29.00;99.90
19972;DHT22;10147;16.402;102.848;2023-02-28T04:29:45;28.40;99.90
19972;DHT22;10147;16.402;102.848;2023-02-28T04:32:15;28.90;99.90
19972;DHT22;10147;16.402;102.848;2023-02-28T04:34:46;29.20;99.90
19972;DHT22;10147;16.402;102.848;2023-02-28T04:37:16;29.10;99.90
19972;DHT22;10147;16.402;102.848;2023-02-28T04:39:46;29.00;99.90
19972;DHT22;10147;16.402;102.848;2023-02-28T04:42:16;29.30;99.90
19972;DHT22;10147;16.402;102.848;2023-02-28T04:44:46;29.20;99.90
19972;DHT22;10147;16.402;102.848;2023-02-28T04:47:16;29.20;99.90
19972;DHT22;10147;16.402;102.848;2023-02-28T04:49:47;28.80;99.90
19972;DHT22;10147;16.402;102.848;2023-02-28T04:52:17;28.90;99.90
19972;DHT22;10147;16.402;102.848;2023-02-28T04:54:48;29.40;99.90
19972;DHT22;10147;16.402;102.848;2023-02-28T04:57:19;28.90;99.90
19972;DHT22;10147;16.402;102.848;2023-02-28T04:59:49;29.10;99.90
19972;DHT22;10147;16.402;102.848;2023-02-28T05:02:19;29.30;99.90
19972;DHT22;10147;16.402;102.848;2023-02-28T05:04:50;30.40;99.90
19972;DHT22;10147;16.402;102.848;2023-02-28T05:07:21;29.10;99.90
19972;DHT22;10147;16.402;102.848;2023-02-28T05:09:52;28.80;99.90
19972;DHT22;10147;16.402;102.848;2023-02-28T05:12:22;29.60;99.90
19972;DHT22;10147;16.402;102.848;2023-02-28T05:14:53;29.80;99.90
19972;DHT22;10147;16.402;102.848;2023-02-28T05:17:23;30.30;99.60
19972;DHT22;10147;16.402;102.848;2023-02-28T05:19:54;30.40;99.60
19972;DHT22;10147;16.402;102.848;2023-02-28T05:22:41;30.50;99.90
19972;DHT22;10147;16.402;102.848;2023-02-28T05:25:16;30.00;99.50
19972;DHT22;10147;16.402;102.848;2023-02-28T05:27:46;30.60;99.70
19972;DHT22;10147;16.402;102.848;2023-02-28T05:30:16;30.30;98.60
19972;DHT22;10147;16.402;102.848;2023-02-28T05:32:50;29.60;99.80
19972;DHT22;10147;16.402;102.848;2023-02-28T05:35:21;29.80;99.80
19972;DHT22;10147;16.402;102.848;2023-02-28T05:37:52;29.70;99.90
19972;DHT22;10147;16.402;102.848;2023-02-28T05:40:22;29.90;99.90
19972;DHT22;10147;16.402;102.848;2023-02-28T05:42:56;30.20;99.10
19972;DHT22;10147;16.402;102.848;2023-02-28T05:45:27;30.30;99.70
19972;DHT22;10147;16.402;102.848;2023-02-28T05:47:57;30.70;98.30
19972;DHT22;10147;16.402;102.848;2023-02-28T05:50:28;31.20;99.10
19972;DHT22;10147;16.402;102.848;2023-02-28T05:52:58;30.40;98.90
19972;DHT22;10147;16.402;102.848;2023-02-28T05:55:28;30.50;98.50
19972;DHT22;10147;16.402;102.848;2023-02-28T05:57:59;30.60;99.10
19972;DHT22;10147;16.402;102.848;2023-02-28T06:00:29;30.80;99.00
19972;DHT22;10147;16.402;102.848;2023-02-28T06:03:00;30.90;98.40
19972;DHT22;10147;16.402;102.848;2023-02-28T06:05:31;30.80;98.30
19972;DHT22;10147;16.402;102.848;2023-02-28T06:08:02;31.50;97.70
19972;DHT22;10147;16.402;102.848;2023-02-28T06:10:34;31.60;97.50
19972;DHT22;10147;16.402;102.848;2023-02-28T06:13:06;32.20;96.50
19972;DHT22;10147;16.402;102.848;2023-02-28T06:15:37;32.10;97.20
19972;DHT22;10147;16.402;102.848;2023-02-28T06:18:07;32.00;96.50
19972;DHT22;10147;16.402;102.848;2023-02-28T06:20:37;32.00;96.90
19972;DHT22;10147;16.402;102.848;2023-02-28T06:23:08;31.90;97.50
19972;DHT22;10147;16.402;102.848;2023-02-28T06:25:38;32.10;97.30
19972;DHT22;10147;16.402;102.848;2023-02-28T06:28:09;31.00;96.40
19972;DHT22;10147;16.402;102.848;2023-02-28T06:30:40;30.70;97.60
19972;DHT22;10147;16.402;102.848;2023-02-28T06:33:13;31.20;97.20
19972;DHT22;10147;16.402;102.848;2023-02-28T06:35:47;31.80;97.30
19972;DHT22;10147;16.402;102.848;2023-02-28T06:38:17;31.70;96.90
19972;DHT22;10147;16.402;102.848;2023-02-28T06:40:56;32.00;96.30
19972;DHT22;10147;16.402;102.848;2023-02-28T06:43:30;31.50;96.80
19972;DHT22;10147;16.402;102.848;2023-02-28T06:46:03;31.60;95.70
19972;DHT22;10147;16.402;102.848;2023-02-28T06:48:34;31.60;95.50
19972;DHT22;10147;16.402;102.848;2023-02-28T06:51:13;31.80;96.30
19972;DHT22;10147;16.402;102.848;2023-02-28T06:53:44;32.60;96.60
19972;DHT22;10147;16.402;102.848;2023-02-28T06:56:16;33.00;94.60
19972;DHT22;10147;16.402;102.848;2023-02-28T06:58:49;33.20;94.70
19972;DHT22;10147;16.402;102.848;2023-02-28T07:01:20;33.20;94.60
19972;DHT22;10147;16.402;102.848;2023-02-28T07:03:53;33.40;93.80
19972;DHT22;10147;16.402;102.848;2023-02-28T07:06:24;33.60;93.80
19972;DHT22;10147;16.402;102.848;2023-02-28T07:08:54;33.70;93.20
19972;DHT22;10147;16.402;102.848;2023-02-28T07:11:26;33.70;93.80
19972;DHT22;10147;16.402;102.848;2023-02-28T07:13:58;33.40;93.10
19972;DHT22;10147;16.402;102.848;2023-02-28T07:16:28;33.40;93.70
19972;DHT22;10147;16.402;102.848;2023-02-28T07:18:58;32.50;94.10
19972;DHT22;10147;16.402;102.848;2023-02-28T07:21:28;33.30;93.80
19972;DHT22;10147;16.402;102.848;2023-02-28T07:23:59;33.30;94.20
19972;DHT22;10147;16.402;102.848;2023-02-28T07:26:29;33.60;93.20
19972;DHT22;10147;16.402;102.848;2023-02-28T07:29:00;33.30;93.10
19972;DHT22;10147;16.402;102.848;2023-02-28T07:31:31;32.60;93.20
19972;DHT22;10147;16.402;102.848;2023-02-28T07:34:02;32.30;93.70
19972;DHT22;10147;16.402;102.848;2023-02-28T07:36:33;32.40;93.80
19972;DHT22;10147;16.402;102.848;2023-02-28T07:39:04;33.40;93.90
19972;DHT22;10147;16.402;102.848;2023-02-28T07:41:34;33.30;93.70
19972;DHT22;10147;16.402;102.848;2023-02-28T07:44:09;33.50;94.20
19972;DHT22;10147;16.402;102.848;2023-02-28T07:46:39;34.00;94.10
19972;DHT22;10147;16.402;102.848;2023-02-28T07:49:10;33.50;93.20
19972;DHT22;10147;16.402;102.848;2023-02-28T07:51:41;34.20;92.70
19972;DHT22;10147;16.402;102.848;2023-02-28T07:54:11;34.30;92.10
19972;DHT22;10147;16.402;102.848;2023-02-28T07:56:41;33.90;92.50
19972;DHT22;10147;16.402;102.848;2023-02-28T07:59:11;34.30;92.40
19972;DHT22;10147;16.402;102.848;2023-02-28T08:01:41;34.60;91.90
19972;DHT22;10147;16.402;102.848;2023-02-28T08:04:14;34.40;91.60
19972;DHT22;10147;16.402;102.848;2023-02-28T08:06:44;34.60;91.90
19972;DHT22;10147;16.402;102.848;2023-02-28T08:09:14;34.70;90.80
19972;DHT22;10147;16.402;102.848;2023-02-28T08:11:44;34.40;91.00
19972;DHT22;10147;16.402;102.848;2023-02-28T08:14:15;34.30;91.70
19972;DHT22;10147;16.402;102.848;2023-02-28T08:16:45;34.60;90.90
19972;DHT22;10147;16.402;102.848;2023-02-28T08:19:15;34.90;90.50
19972;DHT22;10147;16.402;102.848;2023-02-28T08:21:45;34.20;91.20
19972;DHT22;10147;16.402;102.848;2023-02-28T08:24:15;34.40;92.10
19972;DHT22;10147;16.402;102.848;2023-02-28T08:26:45;34.60;92.10
19972;DHT22;10147;16.402;102.848;2023-02-28T08:29:16;34.60;90.50
19972;DHT22;10147;16.402;102.848;2023-02-28T08:31:46;34.50;90.50
19972;DHT22;10147;16.402;102.848;2023-02-28T08:34:16;34.20;90.10
19972;DHT22;10147;16.402;102.848;2023-02-28T08:36:46;34.00;91.10
19972;DHT22;10147;16.402;102.848;2023-02-28T08:39:17;33.70;90.80
19972;DHT22;10147;16.402;102.848;2023-02-28T08:41:49;33.90;90.60
19972;DHT22;10147;16.402;102.848;2023-02-28T08:44:33;34.00;91.20
19972;DHT22;10147;16.402;102.848;2023-02-28T08:47:03;34.00;90.70
19972;DHT22;10147;16.402;102.848;2023-02-28T08:49:34;34.10;90.60
19972;DHT22;10147;16.402;102.848;2023-02-28T08:52:04;34.10;90.90
19972;DHT22;10147;16.402;102.848;2023-02-28T08:54:36;33.60;90.50
19972;DHT22;10147;16.402;102.848;2023-02-28T08:57:06;33.50;91.70
19972;DHT22;10147;16.402;102.848;2023-02-28T08:59:37;33.70;90.80
19972;DHT22;10147;16.402;102.848;2023-02-28T09:02:11;33.60;91.30
19972;DHT22;10147;16.402;102.848;2023-02-28T09:04:42;33.60;91.20
19972;DHT22;10147;16.402;102.848;2023-02-28T09:07:15;33.90;90.70
19972;DHT22;10147;16.402;102.848;2023-02-28T09:09:45;34.00;90.40
19972;DHT22;10147;16.402;102.848;2023-02-28T09:12:26;34.10;90.60
19972;DHT22;10147;16.402;102.848;2023-02-28T09:14:57;34.00;90.30
19972;DHT22;10147;16.402;102.848;2023-02-28T09:17:27;33.90;90.90
19972;DHT22;10147;16.402;102.848;2023-02-28T09:19:58;33.60;90.90
19972;DHT22;10147;16.402;102.848;2023-02-28T09:22:28;33.70;90.60
19972;DHT22;10147;16.402;102.848;2023-02-28T09:24:58;33.50;90.80
19972;DHT22;10147;16.402;102.848;2023-02-28T09:27:29;33.60;90.40
19972;DHT22;10147;16.402;102.848;2023-02-28T09:29:59;33.30;90.50
19972;DHT22;10147;16.402;102.848;2023-02-28T09:32:29;33.20;90.80
19972;DHT22;10147;16.402;102.848;2023-02-28T09:35:00;32.50;90.70
19972;DHT22;10147;16.402;102.848;2023-02-28T09:37:30;32.40;91.90
19972;DHT22;10147;16.402;102.848;2023-02-28T09:40:00;32.30;91.80
19972;DHT22;10147;16.402;102.848;2023-02-28T09:42:33;32.40;91.30
19972;DHT22;10147;16.402;102.848;2023-02-28T09:45:12;32.30;91.70
19972;DHT22;10147;16.402;102.848;2023-02-28T09:47:47;32.20;91.70
19972;DHT22;10147;16.402;102.848;2023-02-28T09:50:29;32.30;91.80
19972;DHT22;10147;16.402;102.848;2023-02-28T09:53:09;32.30;92.40
19972;DHT22;10147;16.402;102.848;2023-02-28T09:55:48;32.40;91.90
19972;DHT22;10147;16.402;102.848;2023-02-28T09:58:49;32.40;91.50
19972;DHT22;10147;16.402;102.848;2023-02-28T10:08:07;32.30;91.50
19972;DHT22;10147;16.402;102.848;2023-02-28T10:11:01;32.10;91.70
19972;DHT22;10147;16.402;102.848;2023-02-28T10:16:38;31.80;92.10
19972;DHT22;10147;16.402;102.848;2023-02-28T10:22:25;31.80;92.00
19972;DHT22;10147;16.402;102.848;2023-02-28T10:24:58;31.50;92.10
19972;DHT22;10147;16.402;102.848;2023-02-28T10:27:34;31.70;91.70
19972;DHT22;10147;16.402;102.848;2023-02-28T10:30:06;31.80;91.70
19972;DHT22;10147;16.402;102.848;2023-02-28T10:32:39;31.70;91.60
19972;DHT22;10147;16.402;102.848;2023-02-28T10:35:18;31.40;91.70
19972;DHT22;10147;16.402;102.848;2023-02-28T10:37:51;31.30;91.60
19972;DHT22;10147;16.402;102.848;2023-02-28T10:40:35;31.20;92.00
19972;DHT22;10147;16.402;102.848;2023-02-28T10:43:19;31.40;92.20
19972;DHT22;10147;16.402;102.848;2023-02-28T10:45:58;31.40;91.60
19972;DHT22;10147;16.402;102.848;2023-02-28T10:48:34;31.10;91.40
19972;DHT22;10147;16.402;102.848;2023-02-28T10:51:10;30.90;92.00
19972;DHT22;10147;16.402;102.848;2023-02-28T10:53:59;30.90;92.10
19972;DHT22;10147;16.402;102.848;2023-02-28T10:56:30;30.80;92.00
19972;DHT22;10147;16.402;102.848;2023-02-28T10:59:29;30.60;92.00
19972;DHT22;10147;16.402;102.848;2023-02-28T11:01:59;30.60;92.10
19972;DHT22;10147;16.402;102.848;2023-02-28T11:04:36;30.60;92.50
19972;DHT22;10147;16.402;102.848;2023-02-28T11:07:23;30.60;92.50
19972;DHT22;10147;16.402;102.848;2023-02-28T11:10:19;30.60;92.50
19972;DHT22;10147;16.402;102.848;2023-02-28T11:12:55;30.50;92.70
19972;DHT22;10147;16.402;102.848;2023-02-28T11:15:30;30.50;92.60
19972;DHT22;10147;16.402;102.848;2023-02-28T11:21:32;30.60;94.20
19972;DHT22;10147;16.402;102.848;2023-02-28T11:24:36;30.40;95.00
19972;DHT22;10147;16.402;102.848;2023-02-28T11:30:40;30.30;96.00
19972;DHT22;10147;16.402;102.848;2023-02-28T11:33:39;30.20;97.60
19972;DHT22;10147;16.402;102.848;2023-02-28T11:36:31;30.10;96.80
19972;DHT22;10147;16.402;102.848;2023-02-28T11:39:10;30.10;98.80
19972;DHT22;10147;16.402;102.848;2023-02-28T11:42:06;30.00;99.00
19972;DHT22;10147;16.402;102.848;2023-02-28T11:45:09;30.00;98.50
19972;DHT22;10147;16.402;102.848;2023-02-28T11:51:10;29.70;99.40
19972;DHT22;10147;16.402;102.848;2023-02-28T11:53:58;29.60;99.00
19972;DHT22;10147;16.402;102.848;2023-02-28T11:56:41;29.50;99.90
19972;DHT22;10147;16.402;102.848;2023-02-28T11:59:43;29.40;99.90
19972;DHT22;10147;16.402;102.848;2023-02-28T12:02:26;29.30;99.90
19972;DHT22;10147;16.402;102.848;2023-02-28T12:11:39;29.10;99.90
19972;DHT22;10147;16.402;102.848;2023-02-28T12:20:45;28.80;99.90
19972;DHT22;10147;16.402;102.848;2023-02-28T12:26:46;28.30;99.90
19972;DHT22;10147;16.402;102.848;2023-02-28T12:29:28;28.50;99.90
19972;DHT22;10147;16.402;102.848;2023-02-28T12:32:24;28.10;99.90
19972;DHT22;10147;16.402;102.848;2023-02-28T12:35:04;27.50;99.90
19972;DHT22;10147;16.402;102.848;2023-02-28T12:40:48;27.40;99.90
19972;DHT22;10147;16.402;102.848;2023-02-28T12:43:20;27.00;99.90
19972;DHT22;10147;16.402;102.848;2023-02-28T12:46:02;26.80;99.90
19972;DHT22;10147;16.402;102.848;2023-02-28T12:48:52;27.20;99.90
19972;DHT22;10147;16.402;102.848;2023-02-28T12:51:25;27.40;99.90
19972;DHT22;10147;16.402;102.848;2023-02-28T12:57:40;27.20;99.90
19972;DHT22;10147;16.402;102.848;2023-02-28T13:00:20;27.30;99.90
19972;DHT22;10147;16.402;102.848;2023-02-28T13:06:23;27.70;99.90
19972;DHT22;10147;16.402;102.848;2023-02-28T13:09:17;27.30;99.90
19972;DHT22;10147;16.402;102.848;2023-02-28T13:11:53;26.60;99.90
19972;DHT22;10147;16.402;102.848;2023-02-28T13:14:39;26.20;99.90
19972;DHT22;10147;16.402;102.848;2023-02-28T13:17:17;26.10;99.90
19972;DHT22;10147;16.402;102.848;2023-02-28T13:19:58;26.10;99.90
19972;DHT22;10147;16.402;102.848;2023-02-28T13:22:47;26.10;99.90
19972;DHT22;10147;16.402;102.848;2023-02-28T13:37:48;26.90;99.90
19972;DHT22;10147;16.402;102.848;2023-02-28T13:40:33;26.90;99.90
19972;DHT22;10147;16.402;102.848;2023-02-28T13:43:08;26.90;99.90
19972;DHT22;10147;16.402;102.848;2023-02-28T13:48:49;26.10;99.90
19972;DHT22;10147;16.402;102.848;2023-02-28T13:51:48;25.80;99.90
19972;DHT22;10147;16.402;102.848;2023-02-28T14:07:00;26.70;99.90
19972;DHT22;10147;16.402;102.848;2023-02-28T14:09:39;26.70;99.90
19972;DHT22;10147;16.402;102.848;2023-02-28T14:15:40;25.90;99.90
19972;DHT22;10147;16.402;102.848;2023-02-28T14:18:35;25.80;99.90
19972;DHT22;10147;16.402;102.848;2023-02-28T14:27:28;25.40;99.90
19972;DHT22;10147;16.402;102.848;2023-02-28T14:33:41;25.60;99.90
19972;DHT22;10147;16.402;102.848;2023-02-28T14:36:26;25.70;99.90
19972;DHT22;10147;16.402;102.848;2023-02-28T14:39:19;25.70;99.90
19972;DHT22;10147;16.402;102.848;2023-02-28T14:41:51;26.00;99.90
19972;DHT22;10147;16.402;102.848;2023-02-28T14:44:24;25.90;99.90
19972;DHT22;10147;16.402;102.848;2023-02-28T14:47:16;26.00;99.90
19972;DHT22;10147;16.402;102.848;2023-02-28T14:49:47;26.10;99.90
19972;DHT22;10147;16.402;102.848;2023-02-28T14:52:22;26.10;99.90
19972;DHT22;10147;16.402;102.848;2023-02-28T14:54:58;25.90;99.90
19972;DHT22;10147;16.402;102.848;2023-02-28T14:57:38;25.40;99.90
19972;DHT22;10147;16.402;102.848;2023-02-28T15:00:33;25.40;99.90
19972;DHT22;10147;16.402;102.848;2023-02-28T15:03:19;25.00;99.90
19972;DHT22;10147;16.402;102.848;2023-02-28T15:06:13;24.70;99.90
19972;DHT22;10147;16.402;102.848;2023-02-28T15:08:44;24.80;99.90
19972;DHT22;10147;16.402;102.848;2023-02-28T15:11:17;24.80;99.90
19972;DHT22;10147;16.402;102.848;2023-02-28T15:13:52;24.90;99.90
19972;DHT22;10147;16.402;102.848;2023-02-28T15:16:44;25.00;99.90
19972;DHT22;10147;16.402;102.848;2023-02-28T15:19:30;24.70;99.90
19972;DHT22;10147;16.402;102.848;2023-02-28T15:22:26;24.50;99.90
19972;DHT22;10147;16.402;102.848;2023-02-28T15:24:59;24.60;99.90
19972;DHT22;10147;16.402;102.848;2023-02-28T15:27:32;24.60;99.90
19972;DHT22;10147;16.402;102.848;2023-02-28T15:30:11;25.00;99.90
19972;DHT22;10147;16.402;102.848;2023-02-28T15:32:44;25.30;99.90
19972;DHT22;10147;16.402;102.848;2023-02-28T15:35:34;25.40;99.90
19972;DHT22;10147;16.402;102.848;2023-02-28T15:38:24;25.40;99.90
19972;DHT22;10147;16.402;102.848;2023-02-28T15:40:57;25.40;99.90
19972;DHT22;10147;16.402;102.848;2023-02-28T15:43:33;25.10;99.90
19972;DHT22;10147;16.402;102.848;2023-02-28T15:46:10;25.00;99.90
19972;DHT22;10147;16.402;102.848;2023-02-28T15:48:54;25.00;99.90
19972;DHT22;10147;16.402;102.848;2023-02-28T15:51:33;25.20;99.90
19972;DHT22;10147;16.402;102.848;2023-02-28T15:54:22;25.00;99.90
19972;DHT22;10147;16.402;102.848;2023-02-28T15:56:56;25.20;99.90
19972;DHT22;10147;16.402;102.848;2023-02-28T15:59:28;25.30;99.90
19972;DHT22;10147;16.402;102.848;2023-02-28T16:02:20;25.30;99.90
19972;DHT22;10147;16.402;102.848;2023-02-28T16:08:00;24.30;99.90
19972;DHT22;10147;16.402;102.848;2023-02-28T16:10:30;24.40;99.90
19972;DHT22;10147;16.402;102.848;2023-02-28T16:13:02;24.70;99.90
19972;DHT22;10147;16.402;102.848;2023-02-28T16:15:38;24.90;99.90
19972;DHT22;10147;16.402;102.848;2023-02-28T16:18:12;24.70;99.90
19972;DHT22;10147;16.402;102.848;2023-02-28T16:20:43;24.80;99.90
19972;DHT22;10147;16.402;102.848;2023-02-28T16:23:14;24.50;99.90
19972;DHT22;10147;16.402;102.848;2023-02-28T16:25:45;23.90;99.90
19972;DHT22;10147;16.402;102.848;2023-02-28T16:28:28;23.90;99.90
19972;DHT22;10147;16.402;102.848;2023-02-28T16:31:04;24.10;99.90
19972;DHT22;10147;16.402;102.848;2023-02-28T16:33:35;24.40;99.90
19972;DHT22;10147;16.402;102.848;2023-02-28T16:36:09;24.50;99.90
19972;DHT22;10147;16.402;102.848;2023-02-28T16:38:40;24.60;99.90
19972;DHT22;10147;16.402;102.848;2023-02-28T16:41:19;24.20;99.90
19972;DHT22;10147;16.402;102.848;2023-02-28T16:43:51;23.90;99.90
19972;DHT22;10147;16.402;102.848;2023-02-28T16:46:22;23.80;99.90
19972;DHT22;10147;16.402;102.848;2023-02-28T16:48:53;24.30;99.90
19972;DHT22;10147;16.402;102.848;2023-02-28T16:51:23;24.40;99.90
19972;DHT22;10147;16.402;102.848;2023-02-28T16:53:54;24.40;99.90
19972;DHT22;10147;16.402;102.848;2023-02-28T16:56:25;24.50;99.90
19972;DHT22;10147;16.402;102.848;2023-02-28T16:58:59;24.20;99.90
19972;DHT22;10147;16.402;102.848;2023-02-28T17:01:30;24.00;99.90
19972;DHT22;10147;16.402;102.848;2023-02-28T17:04:02;23.90;99.90
19972;DHT22;10147;16.402;102.848;2023-02-28T17:06:32;24.00;99.90
19972;DHT22;10147;16.402;102.848;2023-02-28T17:09:03;24.10;99.90
19972;DHT22;10147;16.402;102.848;2023-02-28T17:11:33;24.20;99.90
19972;DHT22;10147;16.402;102.848;2023-02-28T17:14:03;24.30;99.90
19972;DHT22;10147;16.402;102.848;2023-02-28T17:16:36;24.30;99.90
19972;DHT22;10147;16.402;102.848;2023-02-28T17:19:13;24.00;99.90
19972;DHT22;10147;16.402;102.848;2023-02-28T17:21:47;23.30;99.90
19972;DHT22;10147;16.402;102.848;2023-02-28T17:24:17;23.30;99.90
19972;DHT22;10147;16.402;102.848;2023-02-28T17:26:58;23.60;99.90
19972;DHT22;10147;16.402;102.848;2023-02-28T17:29:28;23.90;99.90
19972;DHT22;10147;16.402;102.848;2023-02-28T17:31:59;24.00;99.90
19972;DHT22;10147;16.402;102.848;2023-02-28T17:34:44;23.90;99.90
19972;DHT22;10147;16.402;102.848;2023-02-28T17:37:15;23.70;99.90
19972;DHT22;10147;16.402;102.848;2023-02-28T17:39:45;23.60;99.90
19972;DHT22;10147;16.402;102.848;2023-02-28T17:42:16;23.70;99.90
19972;DHT22;10147;16.402;102.848;2023-02-28T17:44:47;23.80;99.90
19972;DHT22;10147;16.402;102.848;2023-02-28T17:47:17;23.80;99.90
19972;DHT22;10147;16.402;102.848;2023-02-28T17:49:48;23.50;99.90
19972;DHT22;10147;16.402;102.848;2023-02-28T17:52:18;23.70;99.90
19972;DHT22;10147;16.402;102.848;2023-02-28T17:54:49;23.40;99.90
19972;DHT22;10147;16.402;102.848;2023-02-28T17:57:19;22.90;99.90
19972;DHT22;10147;16.402;102.848;2023-02-28T17:59:50;22.70;99.90